sensor_id;sensor_type;location;lat;lon;timestamp;P1;durP1;ratioP1;P2;durP2;ratioP2
8909;SDS011;4490;49.072;8.804;2023-05-07T00:00:37;5.83;;;4.37;;
8909;SDS011;4490;49.072;8.804;2023-05-07T00:03:03;6.77;;;4.57;;
8909;SDS011;4490;49.072;8.804;2023-05-07T00:05:28;7.83;;;4.63;;
8909;SDS011;4490;49.072;8.804;2023-05-07T00:07:54;5.87;;;4.20;;
8909;SDS011;4490;49.072;8.804;2023-05-07T00:10:20;5.57;;;4.17;;
8909;SDS011;4490;49.072;8.804;2023-05-07T00:12:45;10.20;;;4.13;;
8909;SDS011;4490;49.072;8.804;2023-05-07T00:15:11;6.00;;;4.40;;
8909;SDS011;4490;49.072;8.804;2023-05-07T00:17:37;6.37;;;4.60;;
8909;SDS011;4490;49.072;8.804;2023-05-07T00:20:03;5.43;;;4.80;;
8909;SDS011;4490;49.072;8.804;2023-05-07T00:22:30;8.67;;;4.60;;
8909;SDS011;4490;49.072;8.804;2023-05-07T00:24:57;5.70;;;4.70;;
8909;SDS011;4490;49.072;8.804;2023-05-07T00:27:23;4.23;;;3.73;;
8909;SDS011;4490;49.072;8.804;2023-05-07T00:29:49;6.80;;;4.47;;
8909;SDS011;4490;49.072;8.804;2023-05-07T00:32:14;6.10;;;4.23;;
8909;SDS011;4490;49.072;8.804;2023-05-07T00:34:40;4.43;;;4.03;;
8909;SDS011;4490;49.072;8.804;2023-05-07T00:37:05;4.47;;;4.03;;
8909;SDS011;4490;49.072;8.804;2023-05-07T00:39:34;8.07;;;4.73;;
8909;SDS011;4490;49.072;8.804;2023-05-07T00:42:00;5.87;;;4.37;;
8909;SDS011;4490;49.072;8.804;2023-05-07T00:44:26;4.97;;;4.27;;
8909;SDS011;4490;49.072;8.804;2023-05-07T00:46:53;6.23;;;4.20;;
8909;SDS011;4490;49.072;8.804;2023-05-07T00:49:19;5.07;;;4.00;;
8909;SDS011;4490;49.072;8.804;2023-05-07T00:51:45;5.33;;;4.40;;
8909;SDS011;4490;49.072;8.804;2023-05-07T00:54:11;6.60;;;4.30;;
8909;SDS011;4490;49.072;8.804;2023-05-07T00:56:38;4.90;;;4.40;;
8909;SDS011;4490;49.072;8.804;2023-05-07T00:59:05;6.20;;;4.63;;
8909;SDS011;4490;49.072;8.804;2023-05-07T01:01:31;8.03;;;4.47;;
8909;SDS011;4490;49.072;8.804;2023-05-07T01:03:57;5.33;;;4.47;;
8909;SDS011;4490;49.072;8.804;2023-05-07T01:06:23;5.87;;;4.30;;
8909;SDS011;4490;49.072;8.804;2023-05-07T01:08:50;4.83;;;4.33;;
8909;SDS011;4490;49.072;8.804;2023-05-07T01:11:17;6.20;;;4.60;;
8909;SDS011;4490;49.072;8.804;2023-05-07T01:13:45;5.63;;;4.40;;
8909;SDS011;4490;49.072;8.804;2023-05-07T01:16:12;5.90;;;4.20;;
8909;SDS011;4490;49.072;8.804;2023-05-07T01:18:37;7.27;;;4.10;;
8909;SDS011;4490;49.072;8.804;2023-05-07T01:21:04;5.50;;;4.90;;
8909;SDS011;4490;49.072;8.804;2023-05-07T01:23:30;5.13;;;4.63;;
8909;SDS011;4490;49.072;8.804;2023-05-07T01:25:56;5.30;;;4.73;;
8909;SDS011;4490;49.072;8.804;2023-05-07T01:28:21;5.40;;;4.90;;
8909;SDS011;4490;49.072;8.804;2023-05-07T01:30:48;5.10;;;4.60;;
8909;SDS011;4490;49.072;8.804;2023-05-07T01:33:18;6.97;;;5.00;;
8909;SDS011;4490;49.072;8.804;2023-05-07T01:35:50;7.97;;;5.33;;
8909;SDS011;4490;49.072;8.804;2023-05-07T01:38:18;5.63;;;5.00;;
8909;SDS011;4490;49.072;8.804;2023-05-07T01:40:45;5.57;;;5.00;;
8909;SDS011;4490;49.072;8.804;2023-05-07T01:43:11;5.90;;;5.30;;
8909;SDS011;4490;49.072;8.804;2023-05-07T01:45:37;6.90;;;5.17;;
8909;SDS011;4490;49.072;8.804;2023-05-07T01:48:03;6.77;;;5.03;;
8909;SDS011;4490;49.072;8.804;2023-05-07T01:50:30;6.10;;;5.33;;
8909;SDS011;4490;49.072;8.804;2023-05-07T01:52:57;6.07;;;5.40;;
8909;SDS011;4490;49.072;8.804;2023-05-07T01:55:22;6.40;;;4.93;;
8909;SDS011;4490;49.072;8.804;2023-05-07T01:57:48;7.87;;;5.63;;
8909;SDS011;4490;49.072;8.804;2023-05-07T02:00:14;10.43;;;5.40;;
8909;SDS011;4490;49.072;8.804;2023-05-07T02:02:40;8.53;;;5.43;;
8909;SDS011;4490;49.072;8.804;2023-05-07T02:05:05;5.60;;;5.10;;
8909;SDS011;4490;49.072;8.804;2023-05-07T02:07:31;6.20;;;5.20;;
8909;SDS011;4490;49.072;8.804;2023-05-07T02:09:57;6.87;;;5.50;;
8909;SDS011;4490;49.072;8.804;2023-05-07T02:12:22;6.03;;;5.43;;
8909;SDS011;4490;49.072;8.804;2023-05-07T02:14:48;6.13;;;5.10;;
8909;SDS011;4490;49.072;8.804;2023-05-07T02:17:14;5.53;;;4.63;;
8909;SDS011;4490;49.072;8.804;2023-05-07T02:19:40;7.50;;;4.70;;
8909;SDS011;4490;49.072;8.804;2023-05-07T02:22:06;5.17;;;4.40;;
8909;SDS011;4490;49.072;8.804;2023-05-07T02:24:32;6.60;;;4.20;;
8909;SDS011;4490;49.072;8.804;2023-05-07T02:27:03;7.80;;;5.37;;
8909;SDS011;4490;49.072;8.804;2023-05-07T02:29:29;4.80;;;4.33;;
8909;SDS011;4490;49.072;8.804;2023-05-07T02:31:54;5.53;;;4.97;;
8909;SDS011;4490;49.072;8.804;2023-05-07T02:34:20;7.80;;;5.00;;
8909;SDS011;4490;49.072;8.804;2023-05-07T02:36:46;5.20;;;4.70;;
8909;SDS011;4490;49.072;8.804;2023-05-07T02:39:12;5.13;;;4.60;;
8909;SDS011;4490;49.072;8.804;2023-05-07T02:41:38;6.83;;;4.83;;
8909;SDS011;4490;49.072;8.804;2023-05-07T02:44:04;5.90;;;5.30;;
8909;SDS011;4490;49.072;8.804;2023-05-07T02:46:30;5.50;;;5.00;;
8909;SDS011;4490;49.072;8.804;2023-05-07T02:48:55;6.57;;;5.17;;
8909;SDS011;4490;49.072;8.804;2023-05-07T02:51:21;5.93;;;5.27;;
8909;SDS011;4490;49.072;8.804;2023-05-07T02:53:48;6.20;;;5.60;;
8909;SDS011;4490;49.072;8.804;2023-05-07T02:56:13;7.17;;;6.43;;
8909;SDS011;4490;49.072;8.804;2023-05-07T02:58:40;6.77;;;5.97;;
8909;SDS011;4490;49.072;8.804;2023-05-07T03:01:06;7.03;;;6.33;;
8909;SDS011;4490;49.072;8.804;2023-05-07T03:03:32;8.67;;;6.67;;
8909;SDS011;4490;49.072;8.804;2023-05-07T03:05:58;7.20;;;5.97;;
8909;SDS011;4490;49.072;8.804;2023-05-07T03:08:24;7.10;;;6.10;;
8909;SDS011;4490;49.072;8.804;2023-05-07T03:10:49;6.50;;;5.77;;
8909;SDS011;4490;49.072;8.804;2023-05-07T03:13:15;7.97;;;5.80;;
8909;SDS011;4490;49.072;8.804;2023-05-07T03:15:41;7.03;;;5.60;;
8909;SDS011;4490;49.072;8.804;2023-05-07T03:18:06;6.03;;;5.43;;
8909;SDS011;4490;49.072;8.804;2023-05-07T03:20:32;7.93;;;5.57;;
8909;SDS011;4490;49.072;8.804;2023-05-07T03:22:58;6.27;;;5.20;;
8909;SDS011;4490;49.072;8.804;2023-05-07T03:25:23;5.63;;;5.10;;
8909;SDS011;4490;49.072;8.804;2023-05-07T03:27:49;5.30;;;4.90;;
8909;SDS011;4490;49.072;8.804;2023-05-07T03:30:14;5.60;;;5.10;;
8909;SDS011;4490;49.072;8.804;2023-05-07T03:32:40;9.53;;;6.03;;
8909;SDS011;4490;49.072;8.804;2023-05-07T03:35:06;7.13;;;6.00;;
8909;SDS011;4490;49.072;8.804;2023-05-07T03:37:32;6.97;;;5.80;;
8909;SDS011;4490;49.072;8.804;2023-05-07T03:39:57;9.87;;;6.43;;
8909;SDS011;4490;49.072;8.804;2023-05-07T03:42:23;7.50;;;6.67;;
8909;SDS011;4490;49.072;8.804;2023-05-07T03:44:49;6.60;;;5.80;;
8909;SDS011;4490;49.072;8.804;2023-05-07T03:47:15;6.83;;;6.13;;
8909;SDS011;4490;49.072;8.804;2023-05-07T03:49:40;10.27;;;5.93;;
8909;SDS011;4490;49.072;8.804;2023-05-07T03:52:06;6.13;;;5.63;;
8909;SDS011;4490;49.072;8.804;2023-05-07T03:54:31;6.60;;;5.90;;
8909;SDS011;4490;49.072;8.804;2023-05-07T03:56:57;7.13;;;5.80;;
8909;SDS011;4490;49.072;8.804;2023-05-07T03:59:23;6.20;;;5.53;;
8909;SDS011;4490;49.072;8.804;2023-05-07T04:01:48;6.67;;;5.80;;
8909;SDS011;4490;49.072;8.804;2023-05-07T04:04:14;8.40;;;5.70;;
8909;SDS011;4490;49.072;8.804;2023-05-07T04:06:40;6.80;;;5.40;;
8909;SDS011;4490;49.072;8.804;2023-05-07T04:09:06;7.47;;;6.77;;
8909;SDS011;4490;49.072;8.804;2023-05-07T04:11:32;7.53;;;6.00;;
8909;SDS011;4490;49.072;8.804;2023-05-07T04:13:58;5.70;;;5.17;;
8909;SDS011;4490;49.072;8.804;2023-05-07T04:16:23;8.03;;;5.70;;
8909;SDS011;4490;49.072;8.804;2023-05-07T04:18:49;8.57;;;6.03;;
8909;SDS011;4490;49.072;8.804;2023-05-07T04:21:15;5.70;;;5.10;;
8909;SDS011;4490;49.072;8.804;2023-05-07T04:23:41;5.97;;;5.37;;
8909;SDS011;4490;49.072;8.804;2023-05-07T04:26:07;6.10;;;5.50;;
8909;SDS011;4490;49.072;8.804;2023-05-07T04:28:32;6.80;;;5.70;;
8909;SDS011;4490;49.072;8.804;2023-05-07T04:30:58;7.07;;;5.23;;
8909;SDS011;4490;49.072;8.804;2023-05-07T04:33:24;5.77;;;5.27;;
8909;SDS011;4490;49.072;8.804;2023-05-07T04:35:50;6.30;;;5.70;;
8909;SDS011;4490;49.072;8.804;2023-05-07T04:38:15;6.67;;;5.90;;
8909;SDS011;4490;49.072;8.804;2023-05-07T04:40:41;7.40;;;6.00;;
8909;SDS011;4490;49.072;8.804;2023-05-07T04:43:07;11.13;;;6.20;;
8909;SDS011;4490;49.072;8.804;2023-05-07T04:45:34;6.97;;;6.17;;
8909;SDS011;4490;49.072;8.804;2023-05-07T04:48:00;7.17;;;5.90;;
8909;SDS011;4490;49.072;8.804;2023-05-07T04:50:25;6.50;;;5.90;;
8909;SDS011;4490;49.072;8.804;2023-05-07T04:52:51;6.90;;;5.83;;
8909;SDS011;4490;49.072;8.804;2023-05-07T04:55:17;7.40;;;6.13;;
8909;SDS011;4490;49.072;8.804;2023-05-07T04:57:43;8.33;;;6.73;;
8909;SDS011;4490;49.072;8.804;2023-05-07T05:00:08;7.67;;;6.17;;
8909;SDS011;4490;49.072;8.804;2023-05-07T05:02:34;6.70;;;6.07;;
8909;SDS011;4490;49.072;8.804;2023-05-07T05:05:00;6.30;;;5.70;;
8909;SDS011;4490;49.072;8.804;2023-05-07T05:07:27;7.93;;;6.23;;
8909;SDS011;4490;49.072;8.804;2023-05-07T05:09:53;8.73;;;6.43;;
8909;SDS011;4490;49.072;8.804;2023-05-07T05:12:19;6.77;;;6.07;;
8909;SDS011;4490;49.072;8.804;2023-05-07T05:14:45;8.63;;;6.97;;
8909;SDS011;4490;49.072;8.804;2023-05-07T05:17:10;7.17;;;6.00;;
8909;SDS011;4490;49.072;8.804;2023-05-07T05:19:36;7.40;;;6.13;;
8909;SDS011;4490;49.072;8.804;2023-05-07T05:22:02;6.10;;;5.60;;
8909;SDS011;4490;49.072;8.804;2023-05-07T05:24:28;7.90;;;6.27;;
8909;SDS011;4490;49.072;8.804;2023-05-07T05:26:55;6.30;;;5.63;;
8909;SDS011;4490;49.072;8.804;2023-05-07T05:29:20;5.83;;;5.33;;
8909;SDS011;4490;49.072;8.804;2023-05-07T05:31:46;5.67;;;5.17;;
8909;SDS011;4490;49.072;8.804;2023-05-07T05:34:12;7.83;;;5.60;;
8909;SDS011;4490;49.072;8.804;2023-05-07T05:36:37;6.90;;;5.93;;
8909;SDS011;4490;49.072;8.804;2023-05-07T05:39:03;10.30;;;5.50;;
8909;SDS011;4490;49.072;8.804;2023-05-07T05:41:29;6.60;;;5.37;;
8909;SDS011;4490;49.072;8.804;2023-05-07T05:43:55;6.00;;;5.37;;
8909;SDS011;4490;49.072;8.804;2023-05-07T05:46:21;6.30;;;5.70;;
8909;SDS011;4490;49.072;8.804;2023-05-07T05:48:46;6.03;;;5.43;;
8909;SDS011;4490;49.072;8.804;2023-05-07T05:51:12;5.70;;;5.20;;
8909;SDS011;4490;49.072;8.804;2023-05-07T05:53:39;6.43;;;5.47;;
8909;SDS011;4490;49.072;8.804;2023-05-07T05:56:05;7.27;;;5.67;;
8909;SDS011;4490;49.072;8.804;2023-05-07T05:58:31;5.10;;;4.60;;
8909;SDS011;4490;49.072;8.804;2023-05-07T06:00:57;7.57;;;4.67;;
8909;SDS011;4490;49.072;8.804;2023-05-07T06:03:23;5.10;;;4.70;;
8909;SDS011;4490;49.072;8.804;2023-05-07T06:05:49;6.07;;;4.80;;
8909;SDS011;4490;49.072;8.804;2023-05-07T06:08:15;5.57;;;5.00;;
8909;SDS011;4490;49.072;8.804;2023-05-07T06:10:40;5.33;;;4.70;;
8909;SDS011;4490;49.072;8.804;2023-05-07T06:13:07;7.27;;;4.70;;
8909;SDS011;4490;49.072;8.804;2023-05-07T06:15:32;5.03;;;4.10;;
8909;SDS011;4490;49.072;8.804;2023-05-07T06:17:58;4.70;;;4.30;;
8909;SDS011;4490;49.072;8.804;2023-05-07T06:20:24;6.43;;;4.60;;
8909;SDS011;4490;49.072;8.804;2023-05-07T06:22:49;4.40;;;4.00;;
8909;SDS011;4490;49.072;8.804;2023-05-07T06:25:15;5.10;;;4.20;;
8909;SDS011;4490;49.072;8.804;2023-05-07T06:27:40;5.30;;;4.17;;
8909;SDS011;4490;49.072;8.804;2023-05-07T06:30:06;4.33;;;3.93;;
8909;SDS011;4490;49.072;8.804;2023-05-07T06:32:33;4.70;;;3.67;;
8909;SDS011;4490;49.072;8.804;2023-05-07T06:34:58;4.97;;;4.07;;
8909;SDS011;4490;49.072;8.804;2023-05-07T06:37:24;3.63;;;3.30;;
8909;SDS011;4490;49.072;8.804;2023-05-07T06:39:50;3.70;;;3.37;;
8909;SDS011;4490;49.072;8.804;2023-05-07T06:42:15;4.10;;;3.70;;
8909;SDS011;4490;49.072;8.804;2023-05-07T06:44:41;6.57;;;4.10;;
8909;SDS011;4490;49.072;8.804;2023-05-07T06:47:07;3.87;;;3.57;;
8909;SDS011;4490;49.072;8.804;2023-05-07T06:49:32;3.80;;;3.40;;
8909;SDS011;4490;49.072;8.804;2023-05-07T06:51:58;4.70;;;3.00;;
8909;SDS011;4490;49.072;8.804;2023-05-07T06:54:24;5.63;;;2.97;;
8909;SDS011;4490;49.072;8.804;2023-05-07T06:56:49;3.63;;;3.33;;
8909;SDS011;4490;49.072;8.804;2023-05-07T06:59:15;3.57;;;3.27;;
8909;SDS011;4490;49.072;8.804;2023-05-07T07:01:41;3.57;;;3.10;;
8909;SDS011;4490;49.072;8.804;2023-05-07T07:04:06;3.17;;;2.90;;
8909;SDS011;4490;49.072;8.804;2023-05-07T07:06:32;3.97;;;2.90;;
8909;SDS011;4490;49.072;8.804;2023-05-07T07:08:58;4.33;;;2.83;;
8909;SDS011;4490;49.072;8.804;2023-05-07T07:11:24;3.00;;;2.70;;
8909;SDS011;4490;49.072;8.804;2023-05-07T07:13:50;3.20;;;2.90;;
8909;SDS011;4490;49.072;8.804;2023-05-07T07:16:16;3.00;;;2.70;;
8909;SDS011;4490;49.072;8.804;2023-05-07T07:18:41;4.13;;;3.13;;
8909;SDS011;4490;49.072;8.804;2023-05-07T07:21:07;4.13;;;3.03;;
8909;SDS011;4490;49.072;8.804;2023-05-07T07:23:33;3.77;;;2.80;;
8909;SDS011;4490;49.072;8.804;2023-05-07T07:25:59;3.37;;;3.07;;
8909;SDS011;4490;49.072;8.804;2023-05-07T07:28:24;3.17;;;2.87;;
8909;SDS011;4490;49.072;8.804;2023-05-07T07:30:50;2.73;;;2.53;;
8909;SDS011;4490;49.072;8.804;2023-05-07T07:33:15;4.50;;;2.50;;
8909;SDS011;4490;49.072;8.804;2023-05-07T07:35:42;3.50;;;2.60;;
8909;SDS011;4490;49.072;8.804;2023-05-07T07:38:07;3.07;;;2.80;;
8909;SDS011;4490;49.072;8.804;2023-05-07T07:40:36;2.90;;;2.50;;
8909;SDS011;4490;49.072;8.804;2023-05-07T07:43:02;3.10;;;2.90;;
8909;SDS011;4490;49.072;8.804;2023-05-07T07:45:27;2.73;;;2.53;;
8909;SDS011;4490;49.072;8.804;2023-05-07T07:47:54;3.30;;;2.43;;
8909;SDS011;4490;49.072;8.804;2023-05-07T07:50:19;2.53;;;2.33;;
8909;SDS011;4490;49.072;8.804;2023-05-07T07:52:45;2.90;;;2.70;;
8909;SDS011;4490;49.072;8.804;2023-05-07T07:55:11;3.10;;;2.20;;
8909;SDS011;4490;49.072;8.804;2023-05-07T07:57:37;3.43;;;2.70;;
8909;SDS011;4490;49.072;8.804;2023-05-07T08:00:03;2.80;;;2.60;;
8909;SDS011;4490;49.072;8.804;2023-05-07T08:02:29;2.33;;;2.22;;
8909;SDS011;4490;49.072;8.804;2023-05-07T08:04:55;2.88;;;2.60;;
8909;SDS011;4490;49.072;8.804;2023-05-07T08:07:20;4.35;;;2.83;;
8909;SDS011;4490;49.072;8.804;2023-05-07T08:09:47;3.80;;;2.55;;
8909;SDS011;4490;49.072;8.804;2023-05-07T08:12:13;3.60;;;3.00;;
8909;SDS011;4490;49.072;8.804;2023-05-07T08:14:38;2.97;;;2.65;;
8909;SDS011;4490;49.072;8.804;2023-05-07T08:17:04;2.97;;;2.60;;
8909;SDS011;4490;49.072;8.804;2023-05-07T08:19:30;2.95;;;2.38;;
8909;SDS011;4490;49.072;8.804;2023-05-07T08:21:55;3.40;;;2.38;;
8909;SDS011;4490;49.072;8.804;2023-05-07T08:24:21;4.00;;;2.88;;
8909;SDS011;4490;49.072;8.804;2023-05-07T08:26:46;4.70;;;2.75;;
8909;SDS011;4490;49.072;8.804;2023-05-07T08:29:12;2.80;;;2.25;;
8909;SDS011;4490;49.072;8.804;2023-05-07T08:31:38;3.40;;;2.70;;
8909;SDS011;4490;49.072;8.804;2023-05-07T08:34:04;3.08;;;2.50;;
8909;SDS011;4490;49.072;8.804;2023-05-07T08:36:30;3.00;;;2.53;;
8909;SDS011;4490;49.072;8.804;2023-05-07T08:38:55;2.50;;;2.30;;
8909;SDS011;4490;49.072;8.804;2023-05-07T08:41:21;3.15;;;2.30;;
8909;SDS011;4490;49.072;8.804;2023-05-07T08:43:48;4.38;;;2.38;;
8909;SDS011;4490;49.072;8.804;2023-05-07T08:46:19;2.70;;;2.50;;
8909;SDS011;4490;49.072;8.804;2023-05-07T08:48:50;3.05;;;2.40;;
8909;SDS011;4490;49.072;8.804;2023-05-07T08:51:17;2.50;;;2.30;;
8909;SDS011;4490;49.072;8.804;2023-05-07T08:53:44;3.25;;;2.47;;
8909;SDS011;4490;49.072;8.804;2023-05-07T08:56:13;3.03;;;2.33;;
8909;SDS011;4490;49.072;8.804;2023-05-07T08:58:40;2.75;;;2.22;;
8909;SDS011;4490;49.072;8.804;2023-05-07T09:01:07;3.70;;;2.30;;
8909;SDS011;4490;49.072;8.804;2023-05-07T09:03:36;2.92;;;2.60;;
8909;SDS011;4490;49.072;8.804;2023-05-07T09:06:03;2.50;;;2.30;;
8909;SDS011;4490;49.072;8.804;2023-05-07T09:08:29;3.55;;;2.50;;
8909;SDS011;4490;49.072;8.804;2023-05-07T09:10:57;4.22;;;2.35;;
8909;SDS011;4490;49.072;8.804;2023-05-07T09:13:22;3.45;;;2.30;;
8909;SDS011;4490;49.072;8.804;2023-05-07T09:15:48;2.55;;;2.30;;
8909;SDS011;4490;49.072;8.804;2023-05-07T09:18:14;4.88;;;2.50;;
8909;SDS011;4490;49.072;8.804;2023-05-07T09:20:40;2.72;;;2.28;;
8909;SDS011;4490;49.072;8.804;2023-05-07T09:23:06;3.83;;;2.40;;
8909;SDS011;4490;49.072;8.804;2023-05-07T09:25:33;4.97;;;2.50;;
8909;SDS011;4490;49.072;8.804;2023-05-07T09:28:00;2.33;;;2.13;;
8909;SDS011;4490;49.072;8.804;2023-05-07T09:30:27;2.83;;;2.55;;
8909;SDS011;4490;49.072;8.804;2023-05-07T09:32:54;3.08;;;2.80;;
8909;SDS011;4490;49.072;8.804;2023-05-07T09:35:21;2.30;;;2.17;;
8909;SDS011;4490;49.072;8.804;2023-05-07T09:37:49;3.22;;;2.38;;
8909;SDS011;4490;49.072;8.804;2023-05-07T09:40:25;2.95;;;2.45;;
8909;SDS011;4490;49.072;8.804;2023-05-07T09:42:52;2.95;;;2.70;;
8909;SDS011;4490;49.072;8.804;2023-05-07T09:45:36;3.70;;;2.50;;
8909;SDS011;4490;49.072;8.804;2023-05-07T09:48:04;2.42;;;2.22;;
8909;SDS011;4490;49.072;8.804;2023-05-07T09:50:40;3.75;;;2.47;;
8909;SDS011;4490;49.072;8.804;2023-05-07T09:53:14;2.95;;;2.33;;
8909;SDS011;4490;49.072;8.804;2023-05-07T09:55:40;3.40;;;2.70;;
8909;SDS011;4490;49.072;8.804;2023-05-07T09:58:07;3.50;;;2.80;;
8909;SDS011;4490;49.072;8.804;2023-05-07T10:00:34;4.45;;;2.22;;
8909;SDS011;4490;49.072;8.804;2023-05-07T10:03:01;2.72;;;2.53;;
8909;SDS011;4490;49.072;8.804;2023-05-07T10:05:27;2.60;;;2.40;;
8909;SDS011;4490;49.072;8.804;2023-05-07T10:07:54;3.00;;;2.80;;
8909;SDS011;4490;49.072;8.804;2023-05-07T10:10:22;2.55;;;2.33;;
8909;SDS011;4490;49.072;8.804;2023-05-07T10:12:49;4.68;;;2.70;;
8909;SDS011;4490;49.072;8.804;2023-05-07T10:15:15;5.40;;;2.38;;
8909;SDS011;4490;49.072;8.804;2023-05-07T10:17:41;2.83;;;2.63;;
8909;SDS011;4490;49.072;8.804;2023-05-07T10:20:07;3.10;;;2.47;;
8909;SDS011;4490;49.072;8.804;2023-05-07T10:22:44;4.43;;;2.60;;
8909;SDS011;4490;49.072;8.804;2023-05-07T10:25:19;3.00;;;2.70;;
8909;SDS011;4490;49.072;8.804;2023-05-07T10:27:50;3.72;;;2.70;;
8909;SDS011;4490;49.072;8.804;2023-05-07T10:33:03;3.10;;;2.35;;
8909;SDS011;4490;49.072;8.804;2023-05-07T10:35:31;3.00;;;2.60;;
8909;SDS011;4490;49.072;8.804;2023-05-07T10:38:04;3.08;;;2.53;;
8909;SDS011;4490;49.072;8.804;2023-05-07T10:40:30;2.63;;;2.42;;
8909;SDS011;4490;49.072;8.804;2023-05-07T10:42:57;2.70;;;2.50;;
8909;SDS011;4490;49.072;8.804;2023-05-07T10:45:27;2.50;;;2.30;;
8909;SDS011;4490;49.072;8.804;2023-05-07T10:50:34;3.35;;;2.60;;
8909;SDS011;4490;49.072;8.804;2023-05-07T10:55:42;2.70;;;2.50;;
8909;SDS011;4490;49.072;8.804;2023-05-07T11:00:46;3.17;;;2.80;;
8909;SDS011;4490;49.072;8.804;2023-05-07T11:03:16;2.78;;;2.20;;
8909;SDS011;4490;49.072;8.804;2023-05-07T11:05:42;4.20;;;2.80;;
8909;SDS011;4490;49.072;8.804;2023-05-07T11:08:08;3.03;;;2.50;;
8909;SDS011;4490;49.072;8.804;2023-05-07T11:10:50;3.15;;;2.47;;
8909;SDS011;4490;49.072;8.804;2023-05-07T11:13:18;3.50;;;2.30;;
8909;SDS011;4490;49.072;8.804;2023-05-07T11:16:03;2.50;;;2.28;;
8909;SDS011;4490;49.072;8.804;2023-05-07T11:18:45;3.22;;;2.50;;
8909;SDS011;4490;49.072;8.804;2023-05-07T11:21:13;3.42;;;2.55;;
8909;SDS011;4490;49.072;8.804;2023-05-07T11:23:56;3.13;;;2.60;;
8909;SDS011;4490;49.072;8.804;2023-05-07T11:26:22;2.75;;;2.45;;
8909;SDS011;4490;49.072;8.804;2023-05-07T11:28:48;3.15;;;2.75;;
8909;SDS011;4490;49.072;8.804;2023-05-07T11:31:15;3.33;;;2.65;;
8909;SDS011;4490;49.072;8.804;2023-05-07T11:33:47;4.72;;;2.58;;
8909;SDS011;4490;49.072;8.804;2023-05-07T11:36:13;2.78;;;2.30;;
8909;SDS011;4490;49.072;8.804;2023-05-07T11:38:40;2.90;;;2.47;;
8909;SDS011;4490;49.072;8.804;2023-05-07T11:41:05;2.85;;;2.33;;
8909;SDS011;4490;49.072;8.804;2023-05-07T11:43:32;4.00;;;2.40;;
8909;SDS011;4490;49.072;8.804;2023-05-07T11:46:05;5.10;;;2.85;;
8909;SDS011;4490;49.072;8.804;2023-05-07T11:48:34;2.95;;;2.67;;
8909;SDS011;4490;49.072;8.804;2023-05-07T11:51:01;2.55;;;2.35;;
8909;SDS011;4490;49.072;8.804;2023-05-07T11:53:34;2.97;;;2.40;;
8909;SDS011;4490;49.072;8.804;2023-05-07T11:58:34;2.55;;;2.35;;
8909;SDS011;4490;49.072;8.804;2023-05-07T12:01:00;2.55;;;2.35;;
8909;SDS011;4490;49.072;8.804;2023-05-07T12:03:25;2.92;;;2.53;;
8909;SDS011;4490;49.072;8.804;2023-05-07T12:05:51;2.65;;;2.35;;
8909;SDS011;4490;49.072;8.804;2023-05-07T12:08:17;4.05;;;2.17;;
8909;SDS011;4490;49.072;8.804;2023-05-07T12:10:45;2.45;;;2.28;;
8909;SDS011;4490;49.072;8.804;2023-05-07T12:15:41;2.67;;;2.47;;
8909;SDS011;4490;49.072;8.804;2023-05-07T12:18:07;3.75;;;2.38;;
8909;SDS011;4490;49.072;8.804;2023-05-07T12:20:34;2.60;;;2.40;;
8909;SDS011;4490;49.072;8.804;2023-05-07T12:23:01;2.63;;;2.42;;
8909;SDS011;4490;49.072;8.804;2023-05-07T12:25:29;3.10;;;2.55;;
8909;SDS011;4490;49.072;8.804;2023-05-07T12:27:56;3.05;;;2.30;;
8909;SDS011;4490;49.072;8.804;2023-05-07T12:30:23;2.70;;;2.40;;
8909;SDS011;4490;49.072;8.804;2023-05-07T12:32:52;2.30;;;2.10;;
8909;SDS011;4490;49.072;8.804;2023-05-07T12:35:25;3.38;;;2.80;;
8909;SDS011;4490;49.072;8.804;2023-05-07T12:37:55;2.75;;;2.50;;
8909;SDS011;4490;49.072;8.804;2023-05-07T12:40:24;2.58;;;2.40;;
8909;SDS011;4490;49.072;8.804;2023-05-07T12:42:52;2.75;;;2.28;;
8909;SDS011;4490;49.072;8.804;2023-05-07T12:45:21;2.70;;;2.50;;
8909;SDS011;4490;49.072;8.804;2023-05-07T12:47:47;2.30;;;2.10;;
8909;SDS011;4490;49.072;8.804;2023-05-07T12:50:13;2.67;;;2.17;;
8909;SDS011;4490;49.072;8.804;2023-05-07T12:52:39;2.88;;;2.22;;
8909;SDS011;4490;49.072;8.804;2023-05-07T12:55:06;4.05;;;2.58;;
8909;SDS011;4490;49.072;8.804;2023-05-07T12:57:39;3.25;;;2.47;;
8909;SDS011;4490;49.072;8.804;2023-05-07T13:00:06;2.83;;;2.53;;
8909;SDS011;4490;49.072;8.804;2023-05-07T13:02:33;2.60;;;2.40;;
8909;SDS011;4490;49.072;8.804;2023-05-07T13:05:02;2.55;;;2.35;;
8909;SDS011;4490;49.072;8.804;2023-05-07T13:07:27;2.50;;;2.30;;
8909;SDS011;4490;49.072;8.804;2023-05-07T13:09:53;2.30;;;2.10;;
8909;SDS011;4490;49.072;8.804;2023-05-07T13:12:19;2.80;;;2.60;;
8909;SDS011;4490;49.072;8.804;2023-05-07T13:14:44;2.53;;;2.33;;
8909;SDS011;4490;49.072;8.804;2023-05-07T13:17:10;3.45;;;2.80;;
8909;SDS011;4490;49.072;8.804;2023-05-07T13:19:35;3.17;;;2.80;;
8909;SDS011;4490;49.072;8.804;2023-05-07T13:22:02;3.00;;;2.75;;
8909;SDS011;4490;49.072;8.804;2023-05-07T13:24:28;3.95;;;2.70;;
8909;SDS011;4490;49.072;8.804;2023-05-07T13:26:55;5.13;;;2.20;;
8909;SDS011;4490;49.072;8.804;2023-05-07T13:29:21;5.22;;;2.10;;
8909;SDS011;4490;49.072;8.804;2023-05-07T13:31:54;4.00;;;2.60;;
8909;SDS011;4490;49.072;8.804;2023-05-07T13:34:20;5.18;;;2.40;;
8909;SDS011;4490;49.072;8.804;2023-05-07T13:36:45;2.45;;;2.03;;
8909;SDS011;4490;49.072;8.804;2023-05-07T13:39:11;2.30;;;1.85;;
8909;SDS011;4490;49.072;8.804;2023-05-07T13:41:37;5.93;;;1.90;;
8909;SDS011;4490;49.072;8.804;2023-05-07T13:44:03;4.75;;;1.95;;
8909;SDS011;4490;49.072;8.804;2023-05-07T13:46:29;3.72;;;2.10;;
8909;SDS011;4490;49.072;8.804;2023-05-07T13:48:55;3.15;;;2.20;;
8909;SDS011;4490;49.072;8.804;2023-05-07T13:51:21;4.07;;;2.05;;
8909;SDS011;4490;49.072;8.804;2023-05-07T13:53:47;5.72;;;2.00;;
8909;SDS011;4490;49.072;8.804;2023-05-07T13:56:12;4.55;;;2.40;;
8909;SDS011;4490;49.072;8.804;2023-05-07T13:58:39;3.33;;;2.38;;
8909;SDS011;4490;49.072;8.804;2023-05-07T14:01:05;5.53;;;2.67;;
8909;SDS011;4490;49.072;8.804;2023-05-07T14:03:30;6.05;;;2.92;;
8909;SDS011;4490;49.072;8.804;2023-05-07T14:05:57;4.03;;;2.70;;
8909;SDS011;4490;49.072;8.804;2023-05-07T14:08:24;5.72;;;2.80;;
8909;SDS011;4490;49.072;8.804;2023-05-07T14:10:50;5.43;;;3.05;;
8909;SDS011;4490;49.072;8.804;2023-05-07T14:13:17;3.70;;;2.60;;
8909;SDS011;4490;49.072;8.804;2023-05-07T14:15:42;8.32;;;2.92;;
8909;SDS011;4490;49.072;8.804;2023-05-07T14:18:11;4.80;;;3.05;;
8909;SDS011;4490;49.072;8.804;2023-05-07T14:20:41;6.57;;;2.88;;
8909;SDS011;4490;49.072;8.804;2023-05-07T14:23:08;3.17;;;2.70;;
8909;SDS011;4490;49.072;8.804;2023-05-07T14:25:34;5.68;;;2.50;;
8909;SDS011;4490;49.072;8.804;2023-05-07T14:28:00;5.37;;;3.07;;
8909;SDS011;4490;49.072;8.804;2023-05-07T14:30:25;4.73;;;2.50;;
8909;SDS011;4490;49.072;8.804;2023-05-07T14:32:51;3.20;;;2.90;;
8909;SDS011;4490;49.072;8.804;2023-05-07T14:35:17;3.87;;;3.10;;
8909;SDS011;4490;49.072;8.804;2023-05-07T14:37:42;3.80;;;2.63;;
8909;SDS011;4490;49.072;8.804;2023-05-07T14:40:08;4.57;;;2.80;;
8909;SDS011;4490;49.072;8.804;2023-05-07T14:42:35;4.70;;;3.00;;
8909;SDS011;4490;49.072;8.804;2023-05-07T14:45:00;4.80;;;3.30;;
8909;SDS011;4490;49.072;8.804;2023-05-07T14:47:26;4.93;;;3.60;;
8909;SDS011;4490;49.072;8.804;2023-05-07T14:49:52;6.83;;;3.87;;
8909;SDS011;4490;49.072;8.804;2023-05-07T14:52:18;6.07;;;3.27;;
8909;SDS011;4490;49.072;8.804;2023-05-07T14:54:43;5.87;;;3.90;;
8909;SDS011;4490;49.072;8.804;2023-05-07T14:57:10;6.80;;;3.33;;
8909;SDS011;4490;49.072;8.804;2023-05-07T14:59:38;5.07;;;3.40;;
8909;SDS011;4490;49.072;8.804;2023-05-07T15:02:04;5.43;;;3.33;;
8909;SDS011;4490;49.072;8.804;2023-05-07T15:04:32;6.77;;;3.47;;
8909;SDS011;4490;49.072;8.804;2023-05-07T15:06:58;9.10;;;3.47;;
8909;SDS011;4490;49.072;8.804;2023-05-07T15:09:24;23.83;;;21.40;;
8909;SDS011;4490;49.072;8.804;2023-05-07T15:11:50;12.50;;;9.63;;
8909;SDS011;4490;49.072;8.804;2023-05-07T15:14:17;18.93;;;14.43;;
8909;SDS011;4490;49.072;8.804;2023-05-07T15:16:42;15.13;;;11.57;;
8909;SDS011;4490;49.072;8.804;2023-05-07T15:19:08;8.60;;;5.20;;
8909;SDS011;4490;49.072;8.804;2023-05-07T15:21:33;7.20;;;3.37;;
8909;SDS011;4490;49.072;8.804;2023-05-07T15:24:00;6.67;;;3.40;;
8909;SDS011;4490;49.072;8.804;2023-05-07T15:26:27;4.17;;;3.30;;